Terminal Aerodrome Forecast
Issued by NWS Twin Cities, MN

Home | Current Version | Previous Version | Text Only | Print | Product List | Glossary Off
Versions: 1 2 3 4 5 6 7 8 9 10 11 12 13 14 15 16 17

000
FTUS43 KMPX 260200 AAA
TAFSTC
TAF AMD
KSTC 260258Z 2603/2624 02004KT 6SM -SHSN BR SCT008 OVC020
      TEMPO 2603/2606 2SM -SN OVC009
     FM260600 36008KT 6SM -SHSN OVC008
     FM261200 35010KT P6SM OVC009
     FM261800 34009KT P6SM OVC014=

USA.gov is the U.S. government's official web portal to all federal, state and local government web resources and services.